Time;durP1;ratioP1;P1;durP2;ratioP2;P2;SDS_P1;SDS_P2;PMS_P1;PMS_P2;Temp;Humidity;BMP_temperature;BMP_pressure;BME280_temperature;BME280_humidity;BME280_pressure;Samples;Min_cycle;Max_cycle;Signal;HPM_P1;HPM_P2
2022/09/24 00:00:44;;;;;;;10.48;5.40;;;;;;;;;;5092138;28;20048;-49
2022/09/24 00:03:11;;;;;;;12.20;5.15;;;;;;;;;;5092204;28;20055;-50
2022/09/24 00:05:40;;;;;;;10.98;5.03;;;;;;;;;;5082005;28;20059;-46
2022/09/24 00:08:08;;;;;;;7.57;4.32;;;;;;;;;;5087962;28;20503;-47
2022/09/24 00:10:37;;;;;;;9.65;4.20;;;;;;;;;;5093332;28;20055;-49
2022/09/24 00:13:07;;;;;;;8.27;4.25;;;;;;;;;;5095827;28;20055;-46
2022/09/24 00:15:37;;;;;;;12.05;4.30;;;;;;;;;;5094355;28;20052;-49
2022/09/24 00:18:06;;;;;;;8.73;3.97;;;;;;;;;;5095486;28;20052;-48
2022/09/24 00:20:37;;;;;;;4.57;3.20;;;;;;;;;;5095362;28;20056;-46
2022/09/24 00:23:08;;;;;;;6.53;2.95;;;;;;;;;;5096289;28;20205;-48
2022/09/24 00:28:27;;;;;;;6.68;3.53;;;;;;;;;;5095359;28;20055;-47
2022/09/24 00:30:57;;;;;;;8.80;3.67;;;;;;;;;;5095518;28;20132;-50
2022/09/24 00:33:24;;;;;;;10.23;4.78;;;;;;;;;;5094894;28;20071;-48
2022/09/24 00:35:53;;;;;;;8.77;4.65;;;;;;;;;;5095716;28;20131;-46
2022/09/24 00:38:23;;;;;;;6.97;4.07;;;;;;;;;;5095498;28;20055;-47
2022/09/24 00:40:52;;;;;;;8.68;4.28;;;;;;;;;;5095838;28;20052;-48
2022/09/24 00:43:27;;;;;;;7.13;3.47;;;;;;;;;;5095254;28;20070;-48
2022/09/24 00:46:07;;;;;;;8.18;3.90;;;;;;;;;;5095015;28;20051;-50
2022/09/24 00:48:39;;;;;;;7.70;4.30;;;;;;;;;;5094775;28;20056;-47
2022/09/24 00:51:06;;;;;;;5.97;3.65;;;;;;;;;;5095175;28;20088;-47
2022/09/24 00:53:34;;;;;;;6.40;3.78;;;;;;;;;;5094634;28;20054;-47
2022/09/24 00:56:10;;;;;;;7.80;3.15;;;;;;;;;;5095133;28;20441;-47
2022/09/24 00:58:38;;;;;;;8.43;3.78;;;;;;;;;;5095337;28;20082;-46
2022/09/24 01:01:11;;;;;;;6.95;3.55;;;;;;;;;;5094361;28;20048;-48
2022/09/24 01:03:41;;;;;;;9.30;4.22;;;;;;;;;;5093998;28;20046;-47
2022/09/24 01:06:11;;;;;;;7.10;4.15;;;;;;;;;;5087085;28;20523;-47
2022/09/24 01:08:39;;;;;;;8.05;4.10;;;;;;;;;;5090674;28;20049;-47
2022/09/24 01:11:13;;;;;;;10.40;5.55;;;;;;;;;;5087408;28;20384;-47
2022/09/24 01:14:07;;;;;;;6.68;3.60;;;;;;;;;;5088949;28;20476;-47
2022/09/24 01:16:40;;;;;;;7.25;4.55;;;;;;;;;;5091772;28;20054;-48
2022/09/24 01:19:11;;;;;;;8.52;4.20;;;;;;;;;;5095140;28;20075;-49
2022/09/24 01:21:42;;;;;;;8.38;4.63;;;;;;;;;;5091829;28;20485;-50
2022/09/24 01:24:18;;;;;;;7.90;4.60;;;;;;;;;;5092539;28;20044;-47
2022/09/24 01:26:58;;;;;;;6.88;4.50;;;;;;;;;;5077177;28;20048;-47
2022/09/24 01:29:48;;;;;;;10.48;4.40;;;;;;;;;;5086261;28;20051;-49
2022/09/24 01:32:19;;;;;;;9.90;4.35;;;;;;;;;;5094186;28;20069;-48
2022/09/24 01:34:49;;;;;;;6.38;3.92;;;;;;;;;;5091806;28;20113;-48
2022/09/24 01:37:19;;;;;;;7.57;4.60;;;;;;;;;;5093742;28;20055;-51
2022/09/24 01:39:50;;;;;;;9.85;4.60;;;;;;;;;;5085276;28;20136;-46
2022/09/24 01:42:20;;;;;;;7.05;4.47;;;;;;;;;;5089066;28;20047;-48
2022/09/24 01:44:58;;;;;;;8.63;4.43;;;;;;;;;;5094127;28;20043;-49
2022/09/24 01:47:34;;;;;;;8.20;4.72;;;;;;;;;;5093793;28;20048;-46
2022/09/24 01:50:02;;;;;;;8.10;4.45;;;;;;;;;;5093580;28;20480;-47
2022/09/24 01:52:34;;;;;;;7.30;4.40;;;;;;;;;;5090686;28;20143;-49
2022/09/24 01:55:03;;;;;;;9.45;5.05;;;;;;;;;;5088790;28;20048;-50
2022/09/24 01:57:34;;;;;;;7.07;4.30;;;;;;;;;;5093250;28;20055;-48
2022/09/24 02:00:17;;;;;;;10.35;3.97;;;;;;;;;;5064431;28;20044;-48
2022/09/24 02:02:48;;;;;;;7.65;4.00;;;;;;;;;;5094178;28;20361;-50
2022/09/24 02:05:18;;;;;;;8.15;4.05;;;;;;;;;;5093444;28;20105;-48
2022/09/24 02:07:50;;;;;;;7.97;4.32;;;;;;;;;;5093521;28;20056;-51
2022/09/24 02:10:22;;;;;;;10.48;5.35;;;;;;;;;;5093096;28;20139;-50
2022/09/24 02:13:03;;;;;;;9.35;4.72;;;;;;;;;;5094008;28;20051;-49
2022/09/24 02:15:38;;;;;;;7.95;4.15;;;;;;;;;;5091014;28;20471;-47
2022/09/24 02:18:14;;;;;;;10.43;3.67;;;;;;;;;;5093896;28;20062;-49
2022/09/24 02:20:43;;;;;;;10.02;4.35;;;;;;;;;;5093334;28;20373;-50
2022/09/24 02:23:14;;;;;;;6.90;3.90;;;;;;;;;;5093334;28;20048;-48
2022/09/24 02:25:49;;;;;;;8.38;3.60;;;;;;;;;;5093301;28;20132;-51
2022/09/24 02:28:17;;;;;;;5.63;3.45;;;;;;;;;;5093296;28;20048;-49
2022/09/24 02:30:52;;;;;;;8.45;3.88;;;;;;;;;;5093785;28;20056;-49
2022/09/24 02:36:10;;;;;;;6.33;3.60;;;;;;;;;;5093377;28;20047;-50
2022/09/24 02:38:41;;;;;;;6.35;3.47;;;;;;;;;;5093176;28;20193;-51
2022/09/24 02:41:22;;;;;;;4.85;2.72;;;;;;;;;;5092978;28;20131;-48
2022/09/24 02:43:53;;;;;;;6.68;3.38;;;;;;;;;;5093452;28;20052;-49
2022/09/24 02:46:23;;;;;;;4.75;2.97;;;;;;;;;;5092488;28;20083;-49
2022/09/24 02:48:50;;;;;;;5.63;3.17;;;;;;;;;;5093105;28;20369;-48
2022/09/24 02:51:19;;;;;;;5.93;3.63;;;;;;;;;;5092943;28;20108;-47
2022/09/24 02:53:46;;;;;;;6.88;3.42;;;;;;;;;;5091733;28;20051;-49
2022/09/24 02:56:15;;;;;;;7.05;3.42;;;;;;;;;;5092722;28;20063;-51
2022/09/24 02:58:46;;;;;;;6.60;3.78;;;;;;;;;;5092960;28;20098;-46
2022/09/24 03:01:16;;;;;;;5.05;3.75;;;;;;;;;;5093157;28;20048;-49
2022/09/24 03:03:47;;;;;;;5.88;3.58;;;;;;;;;;5092367;28;20100;-50
2022/09/24 03:06:14;;;;;;;5.75;3.42;;;;;;;;;;5088198;28;20664;-49
2022/09/24 03:08:43;;;;;;;6.65;3.88;;;;;;;;;;5092858;28;20059;-47
2022/09/24 03:11:12;;;;;;;6.53;3.25;;;;;;;;;;5092889;28;20056;-48
2022/09/24 03:13:39;;;;;;;7.32;3.45;;;;;;;;;;5092512;28;20105;-48
2022/09/24 03:16:07;;;;;;;6.15;3.20;;;;;;;;;;5089727;28;20559;-50
2022/09/24 03:18:34;;;;;;;4.40;3.10;;;;;;;;;;5092382;28;20120;-46
2022/09/24 03:21:13;;;;;;;5.85;3.20;;;;;;;;;;5092362;28;20046;-50
2022/09/24 03:23:41;;;;;;;6.38;3.20;;;;;;;;;;5092432;28;20093;-49
2022/09/24 03:26:08;;;;;;;4.43;3.13;;;;;;;;;;5092156;28;20058;-47
2022/09/24 03:28:38;;;;;;;5.60;3.25;;;;;;;;;;5092230;28;20374;-48
2022/09/24 03:31:06;;;;;;;6.45;3.90;;;;;;;;;;5092401;28;20391;-47
2022/09/24 03:33:35;;;;;;;7.00;3.70;;;;;;;;;;5086689;28;20043;-48
2022/09/24 03:36:07;;;;;;;6.82;3.70;;;;;;;;;;5091784;28;20036;-50
2022/09/24 03:38:36;;;;;;;7.88;4.00;;;;;;;;;;5085616;28;20118;-46
2022/09/24 03:41:07;;;;;;;6.63;3.85;;;;;;;;;;5092324;28;20445;-49
2022/09/24 03:43:37;;;;;;;7.95;3.58;;;;;;;;;;5091959;28;20051;-47
2022/09/24 03:46:05;;;;;;;8.38;4.03;;;;;;;;;;5095831;28;20104;-48
2022/09/24 03:48:35;;;;;;;7.47;3.55;;;;;;;;;;5095865;28;20047;-51
2022/09/24 03:51:18;;;;;;;7.78;4.15;;;;;;;;;;5096514;28;20162;-47
2022/09/24 03:53:55;;;;;;;7.18;4.22;;;;;;;;;;5090040;28;20093;-51
2022/09/24 03:56:24;;;;;;;8.10;3.90;;;;;;;;;;5095990;28;20109;-50
2022/09/24 03:58:52;;;;;;;6.72;3.42;;;;;;;;;;5082397;28;20059;-46
2022/09/24 04:01:20;;;;;;;7.75;3.72;;;;;;;;;;5095778;28;20112;-48
2022/09/24 04:03:50;;;;;;;7.13;3.85;;;;;;;;;;5096039;28;20048;-50
2022/09/24 04:06:27;;;;;;;5.70;3.58;;;;;;;;;;5091124;28;20373;-47
2022/09/24 04:08:55;;;;;;;7.35;3.47;;;;;;;;;;5094868;28;20050;-47
2022/09/24 04:11:25;;;;;;;7.40;3.20;;;;;;;;;;5096224;28;20052;-50
2022/09/24 04:13:55;;;;;;;5.97;3.58;;;;;;;;;;5095890;28;20134;-47
2022/09/24 04:16:22;;;;;;;6.20;2.97;;;;;;;;;;5095734;28;20112;-50
2022/09/24 04:18:52;;;;;;;7.40;3.33;;;;;;;;;;5095467;28;20056;-48
2022/09/24 04:21:34;;;;;;;6.80;3.78;;;;;;;;;;5093830;28;20134;-48
2022/09/24 04:24:07;;;;;;;6.35;3.38;;;;;;;;;;5077071;28;20040;-46
2022/09/24 04:26:33;;;;;;;6.55;3.28;;;;;;;;;;5095309;28;20075;-47
2022/09/24 04:29:04;;;;;;;8.07;3.50;;;;;;;;;;5094936;28;20105;-49
2022/09/24 04:31:34;;;;;;;6.00;3.38;;;;;;;;;;5095555;28;20048;-49
2022/09/24 04:34:04;;;;;;;6.63;3.63;;;;;;;;;;5093882;28;20058;-47
2022/09/24 04:36:40;;;;;;;8.75;4.20;;;;;;;;;;5095579;28;20047;-50
2022/09/24 04:39:11;;;;;;;8.60;3.63;;;;;;;;;;5093703;28;20064;-48
2022/09/24 04:41:42;;;;;;;8.65;3.83;;;;;;;;;;5095744;28;20094;-50
2022/09/24 04:44:14;;;;;;;7.90;4.05;;;;;;;;;;5095304;28;20063;-48
2022/09/24 04:46:43;;;;;;;7.22;3.20;;;;;;;;;;5090510;28;20048;-47
2022/09/24 04:49:11;;;;;;;5.45;3.22;;;;;;;;;;5094603;28;20138;-51
2022/09/24 04:51:51;;;;;;;7.15;2.88;;;;;;;;;;5094460;28;20479;-47
2022/09/24 04:54:19;;;;;;;10.75;3.10;;;;;;;;;;5087787;28;20498;-48
2022/09/24 04:56:48;;;;;;;6.63;2.80;;;;;;;;;;5094435;28;20052;-51
2022/09/24 04:59:18;;;;;;;6.80;2.72;;;;;;;;;;5095297;28;20105;-49
2022/09/24 05:01:47;;;;;;;7.78;3.08;;;;;;;;;;5095113;28;20059;-50
2022/09/24 05:04:17;;;;;;;6.43;3.50;;;;;;;;;;5095324;28;20090;-47
2022/09/24 05:06:57;;;;;;;6.80;3.28;;;;;;;;;;5094134;28;20044;-48
2022/09/24 05:09:26;;;;;;;6.90;3.17;;;;;;;;;;5095477;28;20112;-50
2022/09/24 05:11:53;;;;;;;5.32;2.67;;;;;;;;;;5094367;28;20159;-50
2022/09/24 05:14:21;;;;;;;8.73;3.67;;;;;;;;;;5094775;28;20139;-49
2022/09/24 05:16:47;;;;;;;8.77;4.00;;;;;;;;;;5094764;28;20348;-46
2022/09/24 05:19:15;;;;;;;10.07;3.85;;;;;;;;;;5081154;28;20052;-49
2022/09/24 05:21:41;;;;;;;10.68;4.18;;;;;;;;;;5094416;28;20048;-47
2022/09/24 05:24:23;;;;;;;9.07;3.85;;;;;;;;;;5094398;28;20113;-48
2022/09/24 05:29:37;;;;;;;7.80;3.90;;;;;;;;;;5082226;28;20059;-49
2022/09/24 05:32:06;;;;;;;10.30;3.92;;;;;;;;;;5094818;28;20318;-47
2022/09/24 05:34:36;;;;;;;14.38;5.60;;;;;;;;;;5087385;28;20052;-49
2022/09/24 05:37:07;;;;;;;8.57;3.88;;;;;;;;;;5083394;28;20048;-47
2022/09/24 05:39:39;;;;;;;5.80;3.63;;;;;;;;;;5094013;28;20043;-49
2022/09/24 05:42:07;;;;;;;6.88;3.67;;;;;;;;;;5094506;28;20055;-47
2022/09/24 05:44:36;;;;;;;8.50;3.85;;;;;;;;;;5093626;28;20109;-47
2022/09/24 05:47:06;;;;;;;7.28;3.15;;;;;;;;;;5085704;28;20044;-47
2022/09/24 05:49:35;;;;;;;8.48;3.85;;;;;;;;;;5093808;28;20052;-46
2022/09/24 05:52:02;;;;;;;5.78;3.20;;;;;;;;;;5082458;28;20039;-47
2022/09/24 05:54:32;;;;;;;7.40;3.55;;;;;;;;;;5093448;28;20091;-46
2022/09/24 05:57:01;;;;;;;11.90;4.30;;;;;;;;;;5094028;28;20036;-46
2022/09/24 05:59:27;;;;;;;6.05;3.53;;;;;;;;;;5094080;28;20052;-47
2022/09/24 06:01:54;;;;;;;11.23;3.70;;;;;;;;;;5090433;28;20086;-47
2022/09/24 06:04:24;;;;;;;10.88;3.88;;;;;;;;;;5085014;28;20052;-47
2022/09/24 06:06:55;;;;;;;8.57;4.05;;;;;;;;;;5088247;28;20519;-46
2022/09/24 06:09:22;;;;;;;8.40;4.05;;;;;;;;;;5092887;28;20079;-46
2022/09/24 06:11:52;;;;;;;7.18;3.15;;;;;;;;;;5093525;28;20440;-46
2022/09/24 06:14:28;;;;;;;8.63;3.78;;;;;;;;;;5093635;28;20052;-47
2022/09/24 06:16:59;;;;;;;9.52;3.35;;;;;;;;;;5092922;28;20048;-46
2022/09/24 06:19:28;;;;;;;8.48;3.63;;;;;;;;;;5093574;28;20059;-46
2022/09/24 06:21:59;;;;;;;4.95;2.90;;;;;;;;;;5093018;28;20060;-50
2022/09/24 06:24:26;;;;;;;8.38;3.30;;;;;;;;;;5093691;28;20148;-48
2022/09/24 06:26:56;;;;;;;7.82;3.35;;;;;;;;;;5091948;28;20093;-50
2022/09/24 06:29:37;;;;;;;6.93;3.15;;;;;;;;;;5093146;28;20048;-50
2022/09/24 06:32:05;;;;;;;5.47;3.30;;;;;;;;;;5092890;28;20531;-47
2022/09/24 06:34:34;;;;;;;9.00;3.47;;;;;;;;;;5083267;28;20127;-47
2022/09/24 06:37:04;;;;;;;6.75;3.20;;;;;;;;;;5092493;28;20040;-47
2022/09/24 06:39:34;;;;;;;7.07;2.95;;;;;;;;;;5093294;28;20065;-47
2022/09/24 06:42:01;;;;;;;6.50;3.00;;;;;;;;;;5082453;28;20044;-46
2022/09/24 06:44:34;;;;;;;7.88;2.80;;;;;;;;;;5089113;28;20490;-48
2022/09/24 06:47:04;;;;;;;6.47;2.92;;;;;;;;;;5084200;28;20055;-47
2022/09/24 06:49:32;;;;;;;4.78;2.70;;;;;;;;;;5092883;28;20529;-47
2022/09/24 06:52:02;;;;;;;4.95;2.97;;;;;;;;;;5092341;28;20105;-47
2022/09/24 06:54:29;;;;;;;8.02;3.47;;;;;;;;;;5092900;28;20052;-49
2022/09/24 06:59:40;;;;;;;5.28;2.50;;;;;;;;;;5092684;28;20052;-46
2022/09/24 07:02:10;;;;;;;5.55;3.00;;;;;;;;;;5092529;28;20139;-46
2022/09/24 07:04:39;;;;;;;6.50;2.83;;;;;;;;;;5090930;28;20052;-46
2022/09/24 07:09:52;;;;;;;5.00;3.00;;;;;;;;;;5091956;28;20059;-47
2022/09/24 07:12:19;;;;;;;3.95;2.20;;;;;;;;;;5092804;28;20050;-48
2022/09/24 07:14:51;;;;;;;6.50;2.70;;;;;;;;;;5087591;28;20052;-46
2022/09/24 07:17:21;;;;;;;5.47;2.90;;;;;;;;;;5091577;28;20047;-48
2022/09/24 07:19:48;;;;;;;6.35;2.67;;;;;;;;;;5092046;28;20526;-50
2022/09/24 07:22:17;;;;;;;5.95;2.60;;;;;;;;;;5091066;28;20052;-47
2022/09/24 07:24:48;;;;;;;4.18;2.22;;;;;;;;;;5092753;28;20083;-46
2022/09/24 07:27:18;;;;;;;6.47;2.40;;;;;;;;;;5092102;28;20044;-49
2022/09/24 07:29:46;;;;;;;5.80;2.38;;;;;;;;;;5092736;28;20043;-50
2022/09/24 07:32:17;;;;;;;6.40;2.72;;;;;;;;;;5092086;28;20048;-48
2022/09/24 07:34:47;;;;;;;6.32;3.22;;;;;;;;;;5089463;28;20377;-47
2022/09/24 07:37:17;;;;;;;5.20;2.92;;;;;;;;;;5090446;28;20040;-48
2022/09/24 07:39:47;;;;;;;6.28;3.13;;;;;;;;;;5087441;28;20205;-46
2022/09/24 07:42:14;;;;;;;5.35;3.13;;;;;;;;;;5085180;28;20052;-49
2022/09/24 07:44:44;;;;;;;9.30;3.35;;;;;;;;;;5092260;28;20087;-47
2022/09/24 07:47:14;;;;;;;7.30;3.28;;;;;;;;;;5091422;28;20044;-48
2022/09/24 07:49:50;;;;;;;9.05;3.20;;;;;;;;;;5092167;28;20051;-49
2022/09/24 07:52:17;;;;;;;5.40;3.00;;;;;;;;;;5092228;28;20087;-48
2022/09/24 07:54:45;;;;;;;9.07;2.92;;;;;;;;;;5092335;28;20083;-49
2022/09/24 07:57:15;;;;;;;5.57;2.70;;;;;;;;;;5089168;28;20083;-50
2022/09/24 07:59:43;;;;;;;7.25;2.95;;;;;;;;;;5092117;28;20062;-45
2022/09/24 08:02:17;;;;;;;4.85;2.70;;;;;;;;;;5091779;28;20095;-48
2022/09/24 08:04:55;;;;;;;7.78;2.83;;;;;;;;;;5092182;28;20058;-45
2022/09/24 08:07:23;;;;;;;6.07;2.88;;;;;;;;;;5090312;28;20407;-45
2022/09/24 08:09:51;;;;;;;5.10;2.83;;;;;;;;;;5090871;28;20052;-45
2022/09/24 08:12:18;;;;;;;6.32;3.50;;;;;;;;;;5092342;28;20048;-46
2022/09/24 08:14:45;;;;;;;6.97;4.18;;;;;;;;;;5091808;28;20360;-45
2022/09/24 08:17:16;;;;;;;6.82;3.38;;;;;;;;;;5092047;28;20145;-47
2022/09/24 08:19:45;;;;;;;5.95;3.05;;;;;;;;;;5090118;28;20105;-48
2022/09/24 08:22:15;;;;;;;9.23;3.60;;;;;;;;;;5090144;28;20052;-50
2022/09/24 08:24:45;;;;;;;10.38;3.75;;;;;;;;;;5082213;28;20079;-48
2022/09/24 08:27:12;;;;;;;7.05;4.25;;;;;;;;;;5091181;28;20521;-48
2022/09/24 08:29:40;;;;;;;7.00;4.13;;;;;;;;;;5072495;28;20461;-49
2022/09/24 08:32:11;;;;;;;8.93;4.50;;;;;;;;;;5092351;28;20056;-47
2022/09/24 08:34:41;;;;;;;7.00;4.05;;;;;;;;;;5086093;28;20056;-46
2022/09/24 08:37:10;;;;;;;6.63;3.80;;;;;;;;;;5091089;28;20083;-46
2022/09/24 08:39:40;;;;;;;10.68;4.20;;;;;;;;;;5079242;28;20056;-46
2022/09/24 08:42:13;;;;;;;8.18;4.22;;;;;;;;;;5094765;28;20047;-46
2022/09/24 08:47:47;;;;;;;7.53;3.75;;;;;;;;;;5088005;28;20046;-48
2022/09/24 08:50:16;;;;;;;5.03;3.30;;;;;;;;;;5095114;28;20117;-49
2022/09/24 08:52:54;;;;;;;5.57;3.40;;;;;;;;;;5094872;28;20141;-46
2022/09/24 08:55:28;;;;;;;9.25;3.60;;;;;;;;;;5094240;28;20058;-46
2022/09/24 08:58:12;;;;;;;5.80;3.08;;;;;;;;;;5094731;28;20131;-47
2022/09/24 09:00:45;;;;;;;6.50;3.13;;;;;;;;;;5087389;28;20048;-50
2022/09/24 09:03:15;;;;;;;6.32;3.75;;;;;;;;;;5093861;28;20055;-47
2022/09/24 09:05:52;;;;;;;8.27;4.43;;;;;;;;;;5091047;28;20136;-47
2022/09/24 09:08:29;;;;;;;6.18;3.45;;;;;;;;;;5088511;28;20356;-49
2022/09/24 09:11:03;;;;;;;7.50;3.53;;;;;;;;;;5094725;28;20131;-48
2022/09/24 09:13:36;;;;;;;4.15;2.60;;;;;;;;;;5094424;28;20056;-47
2022/09/24 09:16:06;;;;;;;4.97;3.08;;;;;;;;;;5092011;28;20676;-46
2022/09/24 09:18:42;;;;;;;4.72;3.20;;;;;;;;;;5093536;28;20044;-46
2022/09/24 09:21:17;;;;;;;5.82;3.00;;;;;;;;;;5095100;28;20178;-46
2022/09/24 09:23:56;;;;;;;;;;;;;;;;;;5088462;28;20123;-50
2022/09/24 09:26:26;;;;;;;4.88;2.50;;;;;;;;;;5087865;28;19977;-47
2022/09/24 09:28:55;;;;;;;4.53;2.90;;;;;;;;;;5094380;28;20044;-46
2022/09/24 09:31:30;;;;;;;5.82;3.35;;;;;;;;;;5084205;28;20079;-47
2022/09/24 09:34:04;;;;;;;5.72;2.58;;;;;;;;;;5076048;28;20131;-48
2022/09/24 09:36:44;;;;;;;4.90;2.35;;;;;;;;;;5077380;28;20473;-48
2022/09/24 09:39:24;;;;;;;3.80;2.60;;;;;;;;;;5078528;28;20058;-46
2022/09/24 09:41:56;;;;;;;5.75;2.70;;;;;;;;;;5081998;28;20135;-46
2022/09/24 09:44:31;;;;;;;5.22;3.30;;;;;;;;;;5079864;28;20106;-48
2022/09/24 09:47:10;;;;;;;5.18;2.60;;;;;;;;;;5078763;28;20056;-46
2022/09/24 09:49:40;;;;;;;6.82;3.92;;;;;;;;;;5084265;28;20044;-46
2022/09/24 09:52:15;;;;;;;4.82;2.92;;;;;;;;;;5084026;28;20051;-46
2022/09/24 09:54:45;;;;;;;9.45;3.63;;;;;;;;;;5079313;28;20052;-47
2022/09/24 09:57:15;;;;;;;5.65;3.17;;;;;;;;;;5066911;28;20121;-49
2022/09/24 09:59:45;;;;;;;6.10;3.17;;;;;;;;;;5070391;28;20561;-52
2022/09/24 10:02:18;;;;;;;5.22;2.83;;;;;;;;;;5091972;28;20059;-47
2022/09/24 10:04:48;;;;;;;5.57;2.60;;;;;;;;;;5088024;28;20054;-47
2022/09/24 10:07:20;;;;;;;4.90;2.30;;;;;;;;;;5087632;28;20131;-45
2022/09/24 10:09:49;;;;;;;3.60;2.08;;;;;;;;;;5087898;28;20130;-47
2022/09/24 10:12:20;;;;;;;5.88;2.05;;;;;;;;;;5091132;28;20081;-46
2022/09/24 10:15:01;;;;;;;6.47;2.38;;;;;;;;;;5090276;28;20058;-47
2022/09/24 10:17:36;;;;;;;3.88;2.20;;;;;;;;;;5090296;28;20041;-47
2022/09/24 10:20:03;;;;;;;;;;;;;;;;;;5093980;28;20052;-46
2022/09/24 10:22:31;;;;;;;4.20;1.70;;;;;;;;;;5091785;28;19935;-50
2022/09/24 10:25:09;;;;;;;4.40;1.73;;;;;;;;;;5093874;28;20050;-49
2022/09/24 10:27:40;;;;;;;3.95;1.85;;;;;;;;;;5092454;28;20054;-47
2022/09/24 10:33:00;;;;;;;2.58;1.38;;;;;;;;;;5083235;28;20051;-50
2022/09/24 10:35:30;;;;;;;5.72;2.42;;;;;;;;;;5085803;28;20059;-50
2022/09/24 10:37:59;;;;;;;3.63;1.88;;;;;;;;;;5093168;28;20098;-50
2022/09/24 10:40:29;;;;;;;4.88;2.10;;;;;;;;;;5086859;28;20098;-49
2022/09/24 10:42:58;;;;;;;4.22;1.88;;;;;;;;;;5084775;28;20066;-46
2022/09/24 10:45:45;;;;;;;4.25;1.90;;;;;;;;;;5087780;28;20066;-49
2022/09/24 10:48:17;;;;;;;4.60;2.00;;;;;;;;;;5091407;28;20048;-47
2022/09/24 10:50:55;;;;;;;5.28;2.13;;;;;;;;;;5084094;28;20048;-49
2022/09/24 10:53:31;;;;;;;3.50;1.50;;;;;;;;;;5092363;28;20048;-48
2022/09/24 10:56:05;;;;;;;2.85;1.33;;;;;;;;;;5088206;28;20543;-50
2022/09/24 10:58:54;;;;;;;2.33;1.20;;;;;;;;;;5087384;28;20036;-49
2022/09/24 11:01:37;;;;;;;2.75;1.17;;;;;;;;;;5092387;28;20460;-48
2022/09/24 11:04:19;;;;;;;2.22;1.10;;;;;;;;;;5080503;28;20441;-50
2022/09/24 11:06:54;;;;;;;2.65;1.55;;;;;;;;;;5088329;28;20129;-48
2022/09/24 11:09:26;;;;;;;5.38;1.30;;;;;;;;;;5090959;28;20051;-49
2022/09/24 11:12:04;;;;;;;2.72;1.33;;;;;;;;;;5091253;28;20044;-50
2022/09/24 11:14:53;;;;;;;3.72;1.08;;;;;;;;;;5092424;28;20078;-51
2022/09/24 11:17:47;;;;;;;4.43;1.00;;;;;;;;;;5089522;28;20427;-48
2022/09/24 11:20:43;;;;;;;5.15;0.98;;;;;;;;;;5079188;28;20358;-47
2022/09/24 11:23:39;;;;;;;3.53;1.10;;;;;;;;;;5055114;28;20040;-46
2022/09/24 11:26:13;;;;;;;1.70;0.82;;;;;;;;;;5090101;28;20059;-47
2022/09/24 11:29:03;;;;;;;1.85;0.88;;;;;;;;;;5088251;28;20144;-47
2022/09/24 11:31:34;;;;;;;2.28;1.15;;;;;;;;;;5081439;28;20056;-47
2022/09/24 11:34:13;;;;;;;2.90;1.20;;;;;;;;;;5090169;28;20052;-47
2022/09/24 11:36:46;;;;;;;2.63;1.30;;;;;;;;;;5092405;28;20126;-47
2022/09/24 11:39:28;;;;;;;3.53;1.50;;;;;;;;;;5092064;28;20357;-48
2022/09/24 11:42:06;;;;;;;2.55;1.33;;;;;;;;;;5084024;28;20062;-48
2022/09/24 11:44:53;;;;;;;2.50;1.30;;;;;;;;;;5088916;28;20044;-48
2022/09/24 11:47:38;;;;;;;3.53;1.30;;;;;;;;;;5087187;28;20139;-47
2022/09/24 11:50:15;;;;;;;3.15;1.58;;;;;;;;;;5090680;28;20067;-47
2022/09/24 11:52:53;;;;;;;3.35;1.70;;;;;;;;;;5092123;28;20052;-46
2022/09/24 11:55:25;;;;;;;3.53;1.70;;;;;;;;;;5092420;28;20087;-46
2022/09/24 11:58:01;;;;;;;3.58;1.85;;;;;;;;;;5092361;28;20154;-45
2022/09/24 12:00:32;;;;;;;3.80;1.45;;;;;;;;;;5092164;28;20044;-46
2022/09/24 12:03:02;;;;;;;4.03;1.40;;;;;;;;;;5092387;28;20052;-47
2022/09/24 12:05:33;;;;;;;2.42;1.23;;;;;;;;;;5092436;28;20376;-46
2022/09/24 12:08:06;;;;;;;2.42;1.65;;;;;;;;;;5086854;28;20675;-46
2022/09/24 12:10:37;;;;;;;3.53;1.95;;;;;;;;;;5095948;28;20671;-46
2022/09/24 12:13:12;;;;;;;4.40;2.15;;;;;;;;;;5095849;28;20058;-51
2022/09/24 12:16:08;;;;;;;3.40;2.00;;;;;;;;;;5094022;28;20047;-46
2022/09/24 12:18:34;;;;;;;;;;;;;;;;;;5095792;28;20036;-50
2022/09/24 12:21:12;;;;;;;2.92;1.33;;;;;;;;;;5094910;28;20271;-47
2022/09/24 12:23:50;;;;;;;4.00;2.25;;;;;;;;;;5095641;28;20050;-46
2022/09/24 12:26:20;;;;;;;3.15;1.73;;;;;;;;;;5086898;28;20059;-47
2022/09/24 12:34:32;;;;;;;3.90;2.03;;;;;;;;;;5084369;28;20043;-47
2022/09/24 12:37:07;;;;;;;4.28;1.55;;;;;;;;;;5086169;28;20054;-49
2022/09/24 12:39:44;;;;;;;3.58;1.90;;;;;;;;;;5091965;28;20118;-50
2022/09/24 12:42:13;;;;;;;3.17;1.90;;;;;;;;;;5086710;28;20464;-47
2022/09/24 12:44:46;;;;;;;2.63;1.70;;;;;;;;;;5095162;28;20054;-45
2022/09/24 12:47:23;;;;;;;4.47;1.88;;;;;;;;;;5094906;28;20064;-45
2022/09/24 12:49:52;;;;;;;3.72;2.15;;;;;;;;;;5095066;28;20056;-45
2022/09/24 12:52:31;;;;;;;4.22;2.42;;;;;;;;;;5095736;28;20427;-46
2022/09/24 12:55:01;;;;;;;3.47;2.28;;;;;;;;;;5080468;28;20138;-45
2022/09/24 12:57:34;;;;;;;3.58;1.50;;;;;;;;;;5095663;28;20076;-46
2022/09/24 13:00:05;;;;;;;4.72;2.30;;;;;;;;;;5092270;28;20109;-46
2022/09/24 13:02:55;;;;;;;3.38;1.92;;;;;;;;;;5084076;28;20126;-46
2022/09/24 13:05:39;;;;;;;3.63;1.77;;;;;;;;;;5095272;28;20048;-45
2022/09/24 13:08:22;;;;;;;3.45;1.92;;;;;;;;;;5082039;28;20045;-45
2022/09/24 13:11:04;;;;;;;3.88;2.03;;;;;;;;;;5094236;28;20135;-45
2022/09/24 13:13:39;;;;;;;3.92;2.20;;;;;;;;;;5094716;28;20250;-46
2022/09/24 13:16:17;;;;;;;3.13;1.70;;;;;;;;;;5083142;28;20052;-47
2022/09/24 13:18:51;;;;;;;2.60;1.67;;;;;;;;;;5093623;28;20064;-47
2022/09/24 13:21:27;;;;;;;3.38;1.40;;;;;;;;;;5094428;28;20055;-48
2022/09/24 13:23:58;;;;;;;3.60;1.30;;;;;;;;;;5092547;28;20048;-47
2022/09/24 13:26:32;;;;;;;1.85;1.00;;;;;;;;;;5095126;28;20099;-46
2022/09/24 13:29:03;;;;;;;4.47;2.13;;;;;;;;;;5089043;28;20041;-45
2022/09/24 13:31:48;;;;;;;3.92;1.55;;;;;;;;;;5094764;28;20460;-46
2022/09/24 13:34:17;;;;;;;;;;;;;;;;;;5090196;28;20109;-46
2022/09/24 13:36:48;;;;;;;3.10;1.45;;;;;;;;;;5087498;28;20473;-49
2022/09/24 13:39:16;;;;;;;2.67;1.40;;;;;;;;;;5091639;28;20055;-46
2022/09/24 13:42:03;;;;;;;2.83;1.30;;;;;;;;;;5091941;28;20048;-49
2022/09/24 13:44:33;;;;;;;4.40;1.95;;;;;;;;;;5091461;28;20793;-46
2022/09/24 13:47:04;;;;;;;3.10;1.20;;;;;;;;;;5091360;28;20048;-46
2022/09/24 13:49:34;;;;;;;2.97;1.05;;;;;;;;;;5089745;28;20036;-47
2022/09/24 13:52:07;;;;;;;3.88;1.30;;;;;;;;;;5075784;28;20752;-47
2022/09/24 13:54:35;;;;;;;2.67;1.20;;;;;;;;;;5087112;28;20051;-48
2022/09/24 13:57:11;;;;;;;3.90;1.65;;;;;;;;;;5091540;28;20129;-48
2022/09/24 13:59:39;;;;;;;2.13;1.30;;;;;;;;;;5093835;28;20144;-47
2022/09/24 14:02:22;;;;;;;2.70;1.42;;;;;;;;;;5093174;28;20052;-45
2022/09/24 14:04:56;;;;;;;4.13;1.70;;;;;;;;;;5093787;28;20054;-45
2022/09/24 14:07:26;;;;;;;2.65;1.48;;;;;;;;;;5090902;28;20052;-45
2022/09/24 14:10:02;;;;;;;3.60;1.38;;;;;;;;;;5091998;28;20166;-45
2022/09/24 14:12:42;;;;;;;2.33;1.10;;;;;;;;;;5093317;28;20048;-45
2022/09/24 14:15:16;;;;;;;3.00;1.70;;;;;;;;;;5092368;28;20084;-47
2022/09/24 14:17:45;;;;;;;8.38;1.60;;;;;;;;;;5090176;28;20051;-46
2022/09/24 14:20:16;;;;;;;2.40;1.35;;;;;;;;;;5093344;28;20142;-46
2022/09/24 14:22:46;;;;;;;4.50;1.90;;;;;;;;;;5093527;28;20051;-45
2022/09/24 14:25:27;;;;;;;3.65;1.60;;;;;;;;;;5090454;28;20139;-45
2022/09/24 14:27:57;;;;;;;5.15;1.85;;;;;;;;;;5092389;28;20147;-45
2022/09/24 14:30:26;;;;;;;3.50;1.83;;;;;;;;;;5091449;28;20044;-45
2022/09/24 14:33:04;;;;;;;2.97;1.80;;;;;;;;;;5087970;28;20048;-45
2022/09/24 14:35:32;;;;;;;3.47;1.90;;;;;;;;;;5078596;28;20056;-46
2022/09/24 14:38:05;;;;;;;4.68;1.67;;;;;;;;;;5079923;28;20062;-46
2022/09/24 14:40:42;;;;;;;3.42;1.63;;;;;;;;;;5092672;28;20051;-46
2022/09/24 14:43:18;;;;;;;3.65;1.80;;;;;;;;;;5088339;28;20040;-45
2022/09/24 14:45:49;;;;;;;5.35;1.77;;;;;;;;;;5085250;28;20048;-46
2022/09/24 14:48:26;;;;;;;3.17;1.90;;;;;;;;;;5083863;28;20484;-45
2022/09/24 14:50:54;;;;;;;1.73;1.30;;;;;;;;;;5089435;28;20191;-45
2022/09/24 14:53:33;;;;;;;3.58;1.80;;;;;;;;;;5086034;28;20581;-46
2022/09/24 14:56:07;;;;;;;3.35;1.95;;;;;;;;;;5089966;28;20048;-45
2022/09/24 14:58:42;;;;;;;4.32;2.13;;;;;;;;;;5081918;28;20048;-43
2022/09/24 15:01:22;;;;;;;;;;;;;;;;;;5089261;28;20052;-46
2022/09/24 15:03:53;;;;;;;3.65;1.60;;;;;;;;;;5090411;28;20294;-46
2022/09/24 15:06:31;;;;;;;3.15;1.80;;;;;;;;;;5090599;28;20084;-45
2022/09/24 15:09:00;;;;;;;4.40;1.63;;;;;;;;;;5092960;28;20130;-45
2022/09/24 15:11:38;;;;;;;4.10;1.90;;;;;;;;;;5092627;28;20044;-45
2022/09/24 15:14:29;;;;;;;3.97;1.85;;;;;;;;;;5092136;28;20052;-46
2022/09/24 15:17:19;;;;;;;3.55;1.77;;;;;;;;;;5088458;28;20368;-45
2022/09/24 15:19:53;;;;;;;4.35;1.77;;;;;;;;;;5091726;28;20054;-45
2022/09/24 15:22:29;;;;;;;3.03;1.60;;;;;;;;;;5092351;28;20446;-45
2022/09/24 15:25:00;;;;;;;3.08;1.58;;;;;;;;;;5090915;28;20056;-44
2022/09/24 15:27:31;;;;;;;2.70;1.27;;;;;;;;;;5091983;28;20051;-46
2022/09/24 15:30:00;;;;;;;3.38;1.67;;;;;;;;;;5090116;28;20044;-46
2022/09/24 15:32:29;;;;;;;3.85;2.13;;;;;;;;;;5091606;28;20117;-46
2022/09/24 15:34:59;;;;;;;3.95;1.75;;;;;;;;;;5085940;28;20055;-46
2022/09/24 15:37:30;;;;;;;2.08;1.30;;;;;;;;;;5091375;28;20051;-47
2022/09/24 15:40:07;;;;;;;3.92;1.90;;;;;;;;;;5092791;28;20494;-46